TAF and METAR

METAR for Yakutsk Airport

UEEE 251430Z 33001MPS 0250 0200SW R23L/0700D FG NSC M51/M57 Q1044 R23L/450150 NOSIG RMK QFE774
Report created 25. jan 15:30
wind 2 knots from NNW (330°) visibility 250 meters visibility SW 200 meters Runway 23L visual range is 700 meters and the tendency is decreasing visibility fog No significant clouds. Temperature -51° with dewpoint at -57° (Humidity 48.19%) Pressure 1044 hPa 1 mm of dry snow is covering 26% - 50% of runway 23L and friction coefficient is 0.5

TAF for Yakutsk Airport

TAF UEEE 251400Z 2515/2621 VRB01MPS 0300 FG VV002 TXM48/2606Z TNM54/2523Z TEMPO 2515/2606 0700 FG NSC
Report created 25. jan 15:00

between 25. jan 16:00 - 26. jan 22:00

wind 2 knots from various directions visibility 300 meters fog vertical visibility 200 feet Max temperature -48° expected tomorrow at around 07 o'clock Min temperature -54° expected tomorrow at around 00 o'clock

temporarily between 25. jan 16:00 - 26. jan 07:00

visibility 700 meters fog No significant clouds.
Yakutsk Airport in Russian Federation at 103m

Latest 5 airports